Terminal Aerodrome Forecast
Issued by NWS Blacksburg, VA

Home | Current Version | Previous Version | Text Only | Print | Product List | Glossary On
Versions: 1 2 3 4 5 6 7 8 9 10 11 12 13 14 15 16 17 18 19 20 21 22 23 24 25 26 27 28 29 30 31 32 33 34 35 36 37 38 39 40 41 42 43 44 45 46 47 48 49
000
FTUS41 KRNK 021525 AAD
TAFLYH
TAF AMD
KLYH 021525Z 0215/0312 17004KT P6SM BKN016
     FM021530 VRB03KT P6SM BKN020
     FM021700 00000KT P6SM SCT030
     FM030700 00000KT 3SM BR BKN025=

USA.gov is the U.S. government's official web portal to all federal, state and local government web resources and services.